This is the latest recevied weather packets stored in our database for station/object K5DLF-13. If no packets are shown the sender has not sent any weather packets the latest 10 day(s).
| Time | Temp. | Humidity | Pressure | Rain* | Wind** | Luminosity | Snow |
|---|---|---|---|---|---|---|---|
| 1777917900 | 27.22° C | 66% | 1012.1 hPa | 0 mm | - | 267 W/m² | - |
| 1777917600 | 27.22° C | 66% | 1012.1 hPa | 0 mm | - | 1044 W/m² | - |
| 1777917300 | 27.22° C | 65% | 1012.2 hPa | 0 mm | - | 248 W/m² | - |
| 1777917000 | 27.22° C | 66% | 1012.2 hPa | 0 mm | - | 466 W/m² | - |
| 1777916700 | 27.22° C | 66% | 1012.3 hPa | 0 mm | - | 309 W/m² | - |
| 1777916400 | 26.67° C | 67% | 1012.2 hPa | 0 mm | - | 976 W/m² | - |
| 1777916100 | 27.22° C | 64% | 1012.5 hPa | 0 mm | - | 262 W/m² | - |
| 1777915800 | 27.78° C | 64% | 1012.7 hPa | 0 mm | - | 292 W/m² | - |
| 1777915500 | 27.22° C | 66% | 1012.6 hPa | 0 mm | - | 1011 W/m² | - |
| 1777915200 | 27.22° C | 66% | 1012.7 hPa | 0 mm | - | 1048 W/m² | - |
| 1777914900 | 27.22° C | 64% | 1012.7 hPa | 0 mm | - | 338 W/m² | - |
| 1777914600 | 26.67° C | 65% | 1012.8 hPa | 0 mm | - | 360 W/m² | - |
| 1777914300 | 27.22° C | 67% | 1012.7 hPa | 0 mm | - | 974 W/m² | - |
| 1777914000 | 26.67° C | 66% | 1012.8 hPa | 0 mm | - | 951 W/m² | - |
| 1777913700 | 27.22° C | 66% | 1013.1 hPa | 0 mm | - | 199 W/m² | - |
| 1777913400 | 27.22° C | 65% | 1013 hPa | 0 mm | - | 947 W/m² | - |
| 1777913100 | 27.22° C | 65% | 1013.2 hPa | 0 mm | - | 868 W/m² | - |
| 1777912800 | 27.22° C | 65% | 1013.2 hPa | 0 mm | - | 930 W/m² | - |
| 1777912500 | 27.22° C | 69% | 1013.3 hPa | 0 mm | - | 907 W/m² | - |
| 1777912200 | 26.67° C | 68% | 1013.3 hPa | 0 mm | - | 907 W/m² | - |
| 1777911900 | 26.67° C | 66% | 1013.3 hPa | 0 mm | - | 260 W/m² | - |
| 1777911600 | 26.67° C | 66% | 1013.3 hPa | 0 mm | - | 243 W/m² | - |
| 1777911300 | 26.67° C | 66% | 1013.5 hPa | 0 mm | - | 847 W/m² | - |
| 1777911000 | 25.56° C | 70% | 1013.6 hPa | 0 mm | - | 912 W/m² | - |
| 1777910700 | 25.56° C | 69% | 1013.6 hPa | 0 mm | - | 907 W/m² | - |
* Rain latest hour (hover to see other rain measurements)
** Current wind speed in m/s (hover to see current wind gust speed)